• Join FlightAware (Why Join?)
  • Login
  • US Flag 
08:58AM EDT


 

Airport Tracker/Info


-or-


 

Live Flight TrackerFlight Track Log ✈ SWA315 ✈ 2013年 04月 18日 ✈ KOAK - KDEN

Flight Track Log - Related Links

Times and Time Zones

All times are in EDT time to prevent confusion due to time zone crossing. See the SWA315 flight status page for this flight to view local times or setup timezone preferences in your user account.

Time Position Orientation Groundspeed Altitude Reporting Facility
EDT Latitude Longitude Course Direction KTS MPH feet Rate Location/Type
09:23AM 37.7167 -122.2500 284° West 160 184 1,400  Level Northern Cal TRACON
09:24AM 37.7333 -122.3333 284° West 234 269 2,900 2,400 Climbing Northern Cal TRACON
09:25AM 37.8000 -122.3500 349° North 251 289 6,200 3,660 Climbing Northern Cal TRACON
09:25AM 37.8667 -122.3500 360° North 258 297 9,900 3,420 Climbing Northern Cal TRACON
09:26AM 37.8708 -122.3367 68° East 253 291 10,500 2,340 Climbing Oakland Center
09:27AM 37.8908 -122.2264 77° East 324 373 13,100 2,820 Climbing Oakland Center
09:28AM 37.9100 -122.1058 79° East 349 402 16,300 2,280 Climbing Oakland Center
09:29AM 37.9336 -121.9531 79° East 367 422 17,800 2,100 Climbing Oakland Center
09:30AM 37.9567 -121.8217 77° East 380 437 20,600 2,640 Climbing Oakland Center
09:31AM 37.9833 -121.6836 76° East 401 461 23,200 2,400 Climbing Oakland Center
09:32AM 38.0097 -121.5433 77° East 410 472 25,600 2,220 Climbing Oakland Center
09:33AM 38.0369 -121.3944 77° East 426 490 27,700 2,040 Climbing Oakland Center
09:34AM 38.0647 -121.2450 77° East 434 499 29,800 1,860 Climbing Oakland Center
09:35AM 38.0922 -121.0944 77° East 440 506 31,600 1,920 Climbing Oakland Center
09:36AM 38.1206 -120.9456 76° East 440 506 33,800 1,680 Climbing Oakland Center
09:37AM 38.1467 -120.7956 77° East 438 504 35,100 1,440 Climbing Oakland Center
09:38AM 38.1736 -120.6447 77° East 439 505 36,800 1,260 Climbing Oakland Center
09:39AM 38.2006 -120.4939 77° East 440 506 37,700 840 Climbing Oakland Center
09:40AM 38.2272 -120.3383 78° East 449 517 38,600 600 Climbing Oakland Center
09:41AM 38.2550 -120.1808 77° East 456 525 39,000 180 Climbing Oakland Center
09:42AM 38.2806 -120.0269 78° East 447 514 39,000  Level Oakland Center
09:43AM 38.3125 -119.8408 78° East 449 517 39,000  Level Oakland Center
09:44AM 38.3397 -119.6867 77° East 448 516 39,000  Level Oakland Center
09:45AM 38.3647 -119.5336 78° East 444 511 39,000  Level Oakland Center
09:46AM 38.3861 -119.3947 79° East 443 510 39,000  Level Oakland Center
09:47AM 38.4111 -119.2422 78° East 442 509 39,000  Level Oakland Center
09:48AM 38.4361 -119.0889 78° East 443 510 39,000  Level Oakland Center
09:49AM 38.4658 -118.9022 78° East 449 517 39,000  Level Oakland Center
09:50AM 38.4903 -118.7456 79° East 451 519 39,000  Level Oakland Center
09:51AM 38.5153 -118.5897 78° East 451 519 39,000  Level Oakland Center
09:52AM 38.5397 -118.4344 79° East 450 518 39,000  Level Oakland Center
09:53AM 38.5631 -118.2797 79° East 448 516 39,000  Level Oakland Center
09:54AM 38.5867 -118.1236 79° East 449 517 39,000  Level Oakland Center
09:55AM 38.6106 -117.9681 79° East 451 519 39,000  Level Oakland Center
09:56AM 38.6331 -117.8097 80° East 452 520 39,000  Level Oakland Center
09:57AM 38.6578 -117.6539 78° East 447 514 39,000  Level Oakland Center
09:58AM 38.6806 -117.4978 79° East 444 511 39,000  Level Oakland Center
09:59AM 38.7033 -117.3436 79° East 441 507 39,000  Level Oakland Center
10:00AM 38.7247 -117.1856 80° East 443 510 39,000  Level Salt Lake Center
10:01AM 38.7475 -117.0283 79° East 446 513 39,000  Level Salt Lake Center
10:02AM 38.7697 -116.8706 80° East 447 514 39,000  Level Salt Lake Center
10:03AM 38.7917 -116.7133 80° East 446 513 39,000  Level Salt Lake Center
10:04AM 38.8147 -116.5547 79° East 451 519 39,000  Level Oakland Center
10:05AM 38.8411 -116.3639 80° East 451 519 39,000  Level Oakland Center
10:06AM 38.8567 -116.2367 81° East 449 517 39,000  Level Salt Lake Center
10:07AM 38.8778 -116.0783 80° East 449 517 39,000  Level Salt Lake Center
10:08AM 38.9042 -115.8878 80° East 451 519 39,000  Level Salt Lake Center
10:09AM 38.9256 -115.7261 80° East 458 527 39,000  Level Salt Lake Center
10:10AM 38.9467 -115.5647 80° East 460 529 39,000  Level Salt Lake Center
10:11AM 38.9669 -115.4011 81° East 461 531 39,000  Level Salt Lake Center
10:12AM 38.9900 -115.2344 80° East 467 537 39,000  Level Salt Lake Center
10:13AM 39.0100 -115.0700 81° East 468 539 39,000  Level Salt Lake Center
10:15AM 39.0306 -114.9078 81° East 463 533 39,000  Level Salt Lake Center
10:16AM 39.0503 -114.7436 81° East 464 534 39,000  Level Salt Lake Center
10:17AM 39.0706 -114.5794 81° East 465 535 39,000  Level Salt Lake Center
10:18AM 39.0903 -114.4181 81° East 460 529 39,000  Level Salt Lake Center
10:19AM 39.1136 -114.2236 81° East 460 529 39,000  Level Salt Lake Center
10:20AM 39.1325 -114.0592 82° East 464 534 39,000  Level Salt Lake Center
10:21AM 39.1528 -113.8961 81° East 462 532 39,000  Level Salt Lake Center
10:22AM 39.1706 -113.7319 82° East 463 533 39,000  Level Salt Lake Center
10:23AM 39.1894 -113.5692 81° East 461 531 39,000  Level Salt Lake Center
10:24AM 39.2075 -113.4050 82° East 463 533 39,000  Level Salt Lake Center
10:25AM 39.2253 -113.2414 82° East 462 532 39,000  Level Salt Lake Center
10:26AM 39.2428 -113.0783 82° East 460 529 39,000  Level Salt Lake Center
10:27AM 39.2600 -112.9147 82° East 461 531 39,000  Level Salt Lake Center
10:28AM 39.2803 -112.7175 82° East 463 533 39,000  Level Salt Lake Center
10:29AM 39.2972 -112.5597 82° East 466 536 39,000  Level Salt Lake Center
10:30AM 39.3231 -112.3983 78° East 464 534 39,000  Level Salt Lake Center
10:31AM 39.3539 -112.2394 76° East 460 529 39,000  Level Salt Lake Center
10:32AM 39.3828 -112.0800 77° East 459 528 39,000  Level Salt Lake Center
10:33AM 39.4122 -111.9208 76° East 458 527 39,000  Level Salt Lake Center
10:34AM 39.4472 -111.7311 77° East 455 524 39,000  Level Salt Lake Center
10:35AM 39.4750 -111.5736 77° East 453 521 39,000  Level Salt Lake Center
10:36AM 39.5047 -111.4144 76° East 455 524 39,000  Level Salt Lake Center
10:37AM 39.5342 -111.2389 78° East 461 531 39,000  Level Salt Lake Center
10:38AM 39.5625 -111.0833 77° East 463 533 39,000  Level Salt Lake Center
10:39AM 39.5897 -110.9283 77° East 462 532 39,000  Level Salt Lake Center
10:40AM 39.6200 -110.7458 78° East 463 533 39,000  Level Salt Lake Center
10:41AM 39.6475 -110.5903 77° East 462 532 39,000  Level Salt Lake Center
10:42AM 39.6781 -110.4108 77° East 458 527 39,000  Level Salt Lake Center
10:43AM 39.7033 -110.2558 78° East 458 527 39,000  Level Salt Lake Center
10:44AM 39.7297 -110.1014 77° East 459 528 39,000  Level Salt Lake Center
10:45AM 39.7589 -109.9186 78° East 463 533 39,000  Level Salt Lake Center
10:46AM 39.7847 -109.7606 78° East 467 537 39,000  Level Salt Lake Center
10:47AM 39.8144 -109.5761 78° East 466 536 39,000  Level Salt Lake Center
10:48AM 39.8219 -109.5222 80° East 464 534 39,000  Level Denver Center
10:49AM 39.8522 -109.3375 78° East 465 535 39,000  Level Denver Center
10:49AM 39.8656 -109.2617 77° East 463 533 39,000  Level Salt Lake Center
10:50AM 39.8775 -109.1808 79° East 463 533 39,000  Level Denver Center
10:50AM 39.8936 -109.0778 78° East 461 531 39,000  Level Salt Lake Center
10:51AM 39.9178 -108.9186 79° East 463 533 39,000  Level Salt Lake Center
10:52AM 39.9297 -108.8381 79° East 463 533 39,000  Level Denver Center
10:53AM 39.9558 -108.6775 78° East 468 539 39,000  Level Denver Center
10:54AM 39.9831 -108.4922 79° East 463 533 39,000  Level Denver Center
10:55AM 40.0072 -108.3333 79° East 464 534 39,000  Level Denver Center
10:56AM 40.0303 -108.1750 79° East 463 533 39,000  Level Denver Center
10:57AM 40.0531 -107.9883 81° East 465 535 39,000  Level Denver Center
10:58AM 40.0747 -107.8283 80° East 469 540 39,000  Level Denver Center
10:59AM 40.0989 -107.6408 80° East 468 539 39,000  Level Denver Center
11:00AM 40.1192 -107.4808 81° East 468 539 39,000  Level Denver Center
11:01AM 40.1425 -107.2942 81° East 466 536 39,000  Level Denver Center
11:02AM 40.1583 -107.1603 81° East 467 537 39,000 -540 Level Denver Center
11:03AM 40.1853 -106.9461 81° East 466 536 37,900 -960 Descending Denver Center
11:04AM 40.2031 -106.7864 82° East 465 535 37,000 -1,680 Descending Denver Center
11:05AM 40.2236 -106.6197 81° East 461 531 34,500 -2,760 Descending Denver Center
11:06AM 40.2453 -106.4422 81° East 462 532 31,400 -2,640 Descending Denver Center
11:07AM 40.2622 -106.2878 82° East 451 519 29,100 -2,280 Descending Denver Center
11:08AM 40.2828 -106.1175 81° East 421 484 26,700 -2,220 Descending Denver Center
11:09AM 40.2969 -105.9725 83° East 399 459 24,600 -2,040 Descending Denver Center
11:10AM 40.3133 -105.8361 81° East 379 436 22,600 -1,920 Descending Denver Center
11:11AM 40.3289 -105.6997 81° East 376 433 20,700 -1,920 Descending Denver Center
11:12AM 40.3425 -105.5647 82° East 372 428 18,700 -1,320 Descending Denver Center
11:13AM 40.3547 -105.4258 83° East 353 406 18,000 -1,080 Descending Denver Center
11:15AM 40.3394 -105.3153 100° East 313 360 16,600 -1,380 Descending Denver Center
11:16AM 40.3244 -105.2044 100° East 311 358 15,200 -1,500 Descending Denver Center
11:17AM 40.3081 -105.0883 100° East 305 351 13,600 -1,680 Descending Denver Center
11:18AM 40.2756 -104.9844 112° Southeast 309 356 11,800 -1,680 Descending Denver Center
11:19AM 40.2381 -104.8697 113° Southeast 317 365 10,200 -1,380 Descending Denver Center
11:20AM 40.1744 -104.7992 140° Southeast 317 365 9,000 -780 Descending Denver Center
11:21AM 40.1061 -104.7550 154° Southeast 279 321 8,600 -600 Descending Denver Center
11:22AM 40.0400 -104.7153 155° Southeast 248 285 7,800 -720 Descending Denver Center
11:23AM 39.9900 -104.6953 163° South 184 212 7,200 -780 Descending Denver Center
11:24AM 39.9406 -104.6956 180° South 161 185 6,200 -900 Descending Denver Center
11:25AM 39.9000 -104.6964 181° South 147 169 5,400 -780 Descending Denver Center
11:27AM 39.8617 -104.6732 North  Level Estimated
11:34AM 39.8617 -104.6732 North  Level Estimated
11:35AM 39.8617 -104.6732 North  Level Estimated